Tiempo atmosférico en la estación meteorológica de Becerreá, Lugo (1080 m.)



Fecha
DESCASC
Temp. máxima en grados centígrados (hora)
DESCASC
Temp. mínima en grados centígrados (hora)
DESCASC
Temp. media en grados centígrados
DESCASC
Racha de viento máxima en m/sg (hora)
DESCASC
Velocidad máxima media en intervalos de 10 minutos(hora)
DESCASC
Precipitaciones diarias en mm
DESCASC
Precipitaciones de 00:00 a 06:00 en mm
DESCASC
Precipitaciones de 06:00 a 12:00 en mm
DESCASC
Precipitaciones de 12:00 a 18:00 en mm
DESCASC
Precipitaciones de 18:00 a 24:00 en mm
DESCASC
16-02-2018 8.1 (00:00) 4.2 (00:00) 6.2 11.11 (00:10) 5.56 (23:00) 26.6 2.4 0.2 5.8 18.2
13-02-2018 4.6 (21:00) -2.3 (-00:0) 1.1 15.83 (07:20) 6.11 (06:50) 35.4 0 12.6 12 10.8
03-02-2018 1.7 (14:30) -1.5 (-00:0) 0.1 11.39 (21:30) 6.11 (18:10) 22.8 0 4.2 14.8 3.8
10-02-2018 3 (23:50) -1.4 (-00:0) 0.8 6.39 (23:40) 3.33 (09:50) 3 0 0.2 0.6 2.2
15-02-2018 9.8 (13:30) 7.9 (00:00) 8.9 16.39 (01:40) 6.11 (04:40) 3.8 0 0 2 1.8
26-01-2018 1.6 (15:50) -0.7 (-00:0) 0.5 8.61 (13:50) 4.72 (07:10) 7 0 0.2 5.6 1.2
27-01-2018 3.6 (23:59) 0.1 (00:00) 1.8 8.33 (08:30) 3.61 (07:20) 1.2 0 0.2 0 1
11-02-2018 5.7 (13:00) -1.2 (-00:0) 2.2 11.39 (14:00) 5.28 (16:00) 16 2.4 3 10.2 0.4
02-02-2018 -0.1 (14:00) -2.6 (-00:0) -1.3 11.11 (00:50) 3.61 (22:30) 10.8 0 0 10.4 0.4
25-01-2018 5.9 (00:00) -0.7 (-00:0) 2.6 16.67 (00:30) 7.78 (00:30) 19.2 10 6.6 2.4 0.2
04-02-2018 -0.2 (13:20) -2.4 (-00:0) -1.3 8.89 (00:40) 3.89 (01:40) 10 0 0.2 9.6 0.2
06-02-2018 -1.1 (15:30) -4.8 (-00:0) -3 10.28 (03:40) 4.17 (04:10) 3.6 0 0 3.4 0.2
07-02-2018 -1.1 (15:00) -3.5 (-00:0) -2.3 10.83 (02:40) 3.61 (00:40) 5 0 0 4.8 0.2
24-01-2018 7.9 (13:40) 2.1 (00:00) 5 16.39 (23:10) 7.78 (23:00) 0.2 0 0 0 0.2
17-02-2018 4.6 (16:00) 0 (00:00) 2.3 6.67 (14:50) 2.78 (10:50) 1.6 1.6 0 0 0
18-02-2018 8.1 (14:20) -0.4 (00:00) 3.9 7.78 (14:30) 3.61 (16:00) 0 0 0 0 0
19-02-2018 5.3 (16:40) 2.5 (00:00) 3.9 7.22 (23:30) 3.33 (23:20) 1.4 0 0 1.4 0
14-02-2018 8 (15:30) 3.9 (00:00) 6 16.94 (05:40) 6.11 (10:40) 1.4 0 1 0.4 0
12-02-2018 0 (17:50) -2.6 (-00:0) -1.3 8.61 (23:59) 3.61 (12:40) 0.8 0 0 0.8 0
22-01-2018 7.2 (16:50) 5.1 (00:00) 6.1 6.94 (02:00) 2.22 (00:40) 0 0 0 0 0
20-02-2018 6.8 (14:30) 1.5 (00:00) 4.2 11.39 (14:00) 4.72 (14:00) 0 0 0 0 0
09-02-2018 2.3 (14:00) -1.3 (-00:0) 0.5 8.89 (14:40) 5.28 (06:10) 5.6 4.2 0.8 0.6 0
08-02-2018 0.6 (17:20) -4.5 (-00:0) -1.9 6.11 (22:20) 4.17 (22:40) 9.2 0 1.4 7.8 0
05-02-2018 -1.2 (04:40) -4.5 (-00:0) -2.9 11.94 (11:10) 5.28 (11:10) 0.8 0 0 0.8 0
01-02-2018 3.7 (00:00) -1.9 (-00:0) 0.9 10.83 (12:20) 5.28 (12:00) 4.6 2.8 0.6 1.2 0
31-01-2018 10.5 (13:50) 3.5 (00:00) 7 6.67 (14:40) 5 (19:20) 0 0 0 0 0
30-01-2018 11.5 (12:30) 4.4 (00:00) 8 5 (02:20) 3.61 (01:30) 0.2 0 0.2 0 0
29-01-2018 10.2 (14:50) 4.6 (00:00) 7.4 11.67 (01:40) 6.39 (03:10) 0 0 0 0 0
28-01-2018 7.3 (16:50) 1.4 (00:00) 4.4 12.78 (23:30) 6.11 (23:30) 0 0 0 0 0
23-01-2018 6.9 (16:00) 3.8 (00:00) 5.4 6.67 (17:10) 4.44 (23:50) 0 0 0 0 0

Gráficas

Temp. máximas Temp. mínimas Temp. medias Precipitaciones Rachas de viento máximas Velocidades máximas media en intervalos de 10 minutos

Datos horarios

Fecha y hora oficial Temperatura (ºC) Velocidad del viento (km/h) Dirección del viento Racha (km/h) Dirección de racha Precipitación (mm) Presión (hPa) Tendencia (hPa) Humedad (%)
2018-02-20 23:00:00 2.9 13 Este 28 Este 0 -- -- 100
2018-02-20 22:00:00 3.2 10 Este 35 Nordeste 0 -- -- 100
2018-02-20 21:00:00 3.5 11 Nordeste 35 Este 0 -- -- 100
2018-02-20 20:00:00 3.5 13 Nordeste 32 Nordeste 0 -- -- 100
2018-02-20 19:00:00 4.1 14 Nordeste 30 Este 0 -- -- 98
2018-02-20 18:00:00 5.3 10 Este 33 Este 0 -- -- 93
2018-02-20 17:00:00 5.5 10 Nordeste 33 Este 0 -- -- 91
2018-02-20 16:00:00 6 14 Nordeste 36 Nordeste 0 -- -- 87
2018-02-20 15:00:00 6.8 14 Nordeste 37 Nordeste 0 -- -- 86
2018-02-20 14:00:00 6.2 17 Nordeste 41 Este 0 -- -- 90
2018-02-20 13:00:00 5.4 13 Nordeste 37 Nordeste 0 -- -- 97
2018-02-20 12:00:00 4.7 10 Este 28 Este 0 -- -- 100
2018-02-20 11:00:00 3.5 9 Nordeste 26 Este 0 -- -- 100
2018-02-20 10:00:00 3.8 12 Nordeste 28 Este 0 -- -- 100
2018-02-20 09:00:00 1.8 10 Nordeste 24 Este 0 -- -- 100
2018-02-20 08:00:00 1.5 11 Nordeste 28 Este 0 -- -- 100
2018-02-20 07:00:00 1.6 10 Nordeste 25 Nordeste 0 -- -- 100
2018-02-20 06:00:00 1.7 10 Este 27 Este 0 -- -- 100
2018-02-20 05:00:00 2.2 12 Nordeste 31 Nordeste 0 -- -- 100
2018-02-20 04:00:00 2.6 9 Nordeste 25 Nordeste 0 -- -- 100
2018-02-20 03:00:00 2.7 10 Nordeste 25 Nordeste 0 -- -- 100
2018-02-20 02:00:00 2.8 11 Nordeste 30 Nordeste 0 -- -- 100
2018-02-20 01:00:00 3.2 9 Nordeste 25 Este 0 -- -- 100
2018-02-20 00:00:00 3.3 10 Nordeste 26 Nordeste 0 -- -- 100
2018-02-19 23:00:00 3.5 10 Nordeste 25 Nordeste 0 -- -- 100
2018-02-19 22:00:00 3.7 8 Nordeste 19 Nordeste 0 -- -- 100
2018-02-19 21:00:00 3.9 8 Nordeste 21 Nordeste 0 -- -- 100
2018-02-19 20:00:00 4.2 8 Nordeste 19 Nordeste 0 -- -- 100
2018-02-19 19:00:00 4.5 6 Nordeste 20 Nordeste 0 -- -- 100
2018-02-19 18:00:00 4.6 6 Norte 20 Nordeste 0.6 -- -- 100
2018-02-19 17:00:00 5.1 5 Nordeste 15 Norte 0.4 -- -- 100
2018-02-19 16:00:00 5.1 4 Nordeste 12 Norte 0 -- -- 100
2018-02-19 15:00:00 4.8 5 Nordeste 14 Nordeste 0 -- -- 100
2018-02-19 14:00:00 4.8 6 Nordeste 15 Nordeste 0.2 -- -- 100
2018-02-19 13:00:00 4.1 3 Nordeste 10 Nordeste 0.2 -- -- 100
2018-02-19 12:00:00 3.8 5 Nordeste 10 Norte 0 -- -- 100
2018-02-19 11:00:00 3.5 4 Nordeste 10 Nordeste 0 -- -- 100
2018-02-19 10:00:00 3.2 5 Nordeste 14 Nordeste 0 -- -- 100
2018-02-19 09:00:00 2.8 5 Este 14 Nordeste 0 -- -- 100
2018-02-19 08:00:00 2.7 6 Nordeste 12 Nordeste 0 -- -- 100
2018-02-19 07:00:00 2.6 4 Nordeste 15 Nordeste 0 -- -- 100
2018-02-19 06:00:00 2.6 7 Nordeste 15 Este 0 -- -- 100
2018-02-19 05:00:00 2.8 5 Nordeste 9 Nordeste 0 -- -- 100
2018-02-19 04:00:00 3.2 3 Nordeste 12 Nordeste 0 -- -- 97
2018-02-19 03:00:00 3.4 6 Nordeste 13 Nordeste 0 -- -- 100
2018-02-19 02:00:00 3.5 5 Nordeste 13 Este 0 -- -- 100
2018-02-19 01:00:00 3.6 6 Nordeste 14 Este 0 -- -- 100
2018-02-19 00:00:00 3.8 7 Nordeste 16 Nordeste 0 -- -- 100
2018-02-18 23:00:00 4.2 8 Este 21 Nordeste 0 -- -- 100
2018-02-18 22:00:00 4.3 9 Nordeste 22 Nordeste 0 -- -- 100
2018-02-18 21:00:00 4 9 Nordeste 18 Este 0 -- -- 99
2018-02-18 20:00:00 4.5 8 Nordeste 17 Nordeste 0 -- -- 98
2018-02-18 19:00:00 5.2 7 Nordeste 17 Nordeste 0 -- -- 93
2018-02-18 18:00:00 6.1 8 Nordeste 21 Nordeste 0 -- -- 90
2018-02-18 17:00:00 7 9 Nordeste 22 Este 0 -- -- 81
2018-02-18 16:00:00 7.6 13 Nordeste 25 Este 0 -- -- 78
2018-02-18 15:00:00 8 9 Nordeste 28 Nordeste 0 -- -- 80
2018-02-18 14:00:00 7.9 8 Nordeste 26 Nordeste 0 -- -- 80
2018-02-18 13:00:00 7.2 12 Nordeste 24 Este 0 -- -- 81
2018-02-18 12:00:00 6.6 9 Este 23 Nordeste 0 -- -- 86
2018-02-18 11:00:00 5.3 10 Nordeste 19 Nordeste 0 -- -- 88
2018-02-18 10:00:00 3.5 8 Este 18 Nordeste 0 -- -- 85
2018-02-18 09:00:00 0.5 7 Este 21 Este 0 -- -- 89
2018-02-18 08:00:00 0 8 Este 25 Este 0 -- -- 90
2018-02-18 07:00:00 -0.2 9 Este 22 Este 0 -- -- 94
2018-02-18 06:00:00 0 10 Este 21 Nordeste 0 -- -- 94
2018-02-18 05:00:00 -0.2 9 Este 20 Nordeste 0 -- -- 100
2018-02-18 04:00:00 -0.4 7 Este 20 Este 0 -- -- 100
2018-02-18 03:00:00 -0.3 7 Este 22 Este 0 -- -- 100
2018-02-18 02:00:00 -0.2 7 Este 19 Este 0 -- -- 100
2018-02-18 01:00:00 -0.2 6 Este 15 Este 0 -- -- 100
2018-02-18 00:00:00 0 5 Este 15 Este 0 -- -- 100
2018-02-17 23:00:00 0.3 6 Este 23 Este 0 -- -- 100
2018-02-17 22:00:00 0.8 9 Este 22 Nordeste 0 -- -- 100
2018-02-17 21:00:00 1 9 Nordeste 20 Nordeste 0 -- -- 100
2018-02-17 20:00:00 1.5 8 Este 18 Este 0 -- -- 99
2018-02-17 19:00:00 2.6 9 Nordeste 20 Nordeste 0 -- -- 94
2018-02-17 18:00:00 3.6 7 Nordeste 23 Nordeste 0 -- -- 88
2018-02-17 17:00:00 4.1 8 Nordeste 18 Este 0 -- -- 89
2018-02-17 16:00:00 4.6 5 Este 20 Nordeste 0 -- -- 93
2018-02-17 15:00:00 4.4 8 Este 24 Este 0 -- -- 100
2018-02-17 14:00:00 3.5 9 Nordeste 21 Nordeste 0 -- -- 100
2018-02-17 13:00:00 3.6 4 Nordeste 17 Nordeste 0 -- -- 100
2018-02-17 12:00:00 2.9 5 Nordeste 17 Nordeste 0 -- -- 100
2018-02-17 11:00:00 2.8 8 Nordeste 19 Nordeste 0 -- -- 100
2018-02-17 10:00:00 2.7 6 Nordeste 15 Nordeste 0 -- -- 100
2018-02-17 09:00:00 1.2 8 Nordeste 19 Nordeste 0 -- -- 100
2018-02-17 08:00:00 0.9 9 Nordeste 21 Nordeste 0 -- -- 100
2018-02-17 07:00:00 1.1 8 Nordeste 20 Nordeste 0 -- -- 100
2018-02-17 06:00:00 1.4 8 Nordeste 17 Nordeste 0 -- -- 100
2018-02-17 05:00:00 2.4 5 Nordeste 18 Norte 0 -- -- 100
2018-02-17 04:00:00 2.9 6 Norte 18 Norte 0.2 -- -- 100
2018-02-17 03:00:00 3.2 4 Norte 12 Noroeste 0.4 -- -- 100
2018-02-17 02:00:00 3.8 5 Noroeste 12 Norte 0.6 -- -- 100
2018-02-17 01:00:00 3.9 3 Noroeste 12 Noroeste 0.4 -- -- 100
2018-02-17 00:00:00 4.2 9 Oeste 28 Oeste 1 -- -- 100
2018-02-16 23:00:00 4.4 20 Oeste 39 Sudoeste 3.6 -- -- 100
2018-02-16 22:00:00 5.4 16 Oeste 37 Sudoeste 3.2 -- -- 100
2018-02-16 21:00:00 6.2 13 Oeste 33 Oeste 6.4 -- -- 100
2018-02-16 20:00:00 6.6 8 Sudoeste 34 Sudoeste 2.2 -- -- 100
2018-02-16 19:00:00 6.7 8 Sudoeste 27 Sudoeste 1.8 -- -- 100
2018-02-16 18:00:00 6.9 8 Sudoeste 29 Oeste 2.2 -- -- 100
2018-02-16 17:00:00 7.3 8 Sur 29 Sudoeste 2 -- -- 100
2018-02-16 16:00:00 7.6 10 Sur 33 Sudoeste 1.2 -- -- 100
2018-02-16 15:00:00 7.8 12 Sudoeste 32 Sudoeste 0.4 -- -- 100
2018-02-16 14:00:00 7.8 13 Sur 31 Sur 0 -- -- 100
2018-02-16 13:00:00 7.8 13 Sudoeste 30 Sudoeste 0 -- -- 100
2018-02-16 12:00:00 7.8 9 Sur 26 Sur 0 -- -- 100
2018-02-16 11:00:00 7.7 12 Sur 28 Sudoeste 0 -- -- 100
2018-02-16 10:00:00 7.3 12 Sur 31 Sudoeste 0 -- -- 100
2018-02-16 09:00:00 7.2 10 Sur 26 Sudoeste 0 -- -- 100
2018-02-16 08:00:00 7.2 12 Sur 26 Sudoeste 0.2 -- -- 100
2018-02-16 07:00:00 7.2 10 Sur 29 Sur 0 -- -- 100
2018-02-16 06:00:00 7.3 12 Sur 30 Sudoeste 0 -- -- 100
2018-02-16 05:00:00 7.4 10 Sudoeste 29 Sur 0 -- -- 100
2018-02-16 04:00:00 7.6 9 Sudoeste 31 Sur 0 -- -- 100
2018-02-16 03:00:00 7.8 10 Sur 28 Sur 0.2 -- -- 100
2018-02-16 02:00:00 7.9 10 Sur 31 Sudoeste 0.2 -- -- 100
2018-02-16 01:00:00 8.1 11 Sur 40 Sudoeste 2 -- -- 100
2018-02-16 00:00:00 8.1 13 Sudoeste 33 Sudoeste 0.2 -- -- 100
2018-02-15 23:00:00 8.3 11 Sur 33 Sudoeste 0.8 -- -- 100
2018-02-15 22:00:00 8.4 9 Sur 28 Sudoeste 0.2 -- -- 100
2018-02-15 21:00:00 8.6 6 Sur 28 Sudoeste 0.2 -- -- 100
2018-02-15 20:00:00 8.8 10 Sudoeste 34 Sur 0 -- -- 100
2018-02-15 19:00:00 8.9 11 Sudoeste 33 Sudoeste 0.4 -- -- 100
2018-02-15 18:00:00 9.1 9 Sudoeste 33 Sudoeste 1.4 -- -- 100
2018-02-15 17:00:00 9.2 12 Sudoeste 41 Sudoeste 0 -- -- 100
2018-02-15 16:00:00 9.2 12 Sudoeste 32 Sudoeste 0.6 -- -- 100
2018-02-15 15:00:00 9.3 8 Sur 32 Sur 0 -- -- 100
2018-02-15 14:00:00 9.8 17 Sur 41 Oeste 0 -- -- 96
2018-02-15 13:00:00 9.3 14 Sur 40 Sudoeste 0 -- -- 98
2018-02-15 12:00:00 8.7 17 Sur 45 Sur 0 -- -- 100
2018-02-15 11:00:00 8.7 19 Sur 41 Sudoeste 0 -- -- 100
2018-02-15 10:00:00 8.6 18 Sudoeste 55 Sudoeste 0 -- -- 100
2018-02-15 09:00:00 8.2 11 Sur 40 Sudoeste 0 -- -- 100
2018-02-15 08:00:00 8.2 12 Sudoeste 41 Oeste 0 -- -- 100
2018-02-15 07:00:00 8.3 16 Sudoeste 50 Sudoeste 0 -- -- 100
2018-02-15 06:00:00 8.1 16 Sudoeste 40 Sudoeste 0 -- -- 100
2018-02-15 05:00:00 8.1 20 Sudoeste 48 Sudoeste 0 -- -- 100
2018-02-15 04:00:00 8 19 Sur 59 Sudoeste 0 -- -- 100
2018-02-15 03:00:00 8.1 16 Sudoeste 41 Sudoeste 0 -- -- 100
2018-02-15 02:00:00 8 17 Sudoeste 59 Sur 0 -- -- 100
2018-02-15 01:00:00 7.9 16 Sudoeste 43 Sudoeste 0 -- -- 100
2018-02-15 00:00:00 7.9 15 Sudoeste 42 Sudoeste 0 -- -- 100
2018-02-14 23:00:00 8 19 Sudoeste 46 Sudoeste 0 -- -- 100
2018-02-14 22:00:00 7.8 17 Sudoeste 45 Sur 0 -- -- 100
2018-02-14 21:00:00 7.8 18 Sudoeste 49 Sudoeste 0 -- -- 100
2018-02-14 20:00:00 7.8 17 Sudoeste 50 Sur 0 -- -- 100
2018-02-14 19:00:00 8 19 Sudoeste 49 Sudoeste 0 -- -- 100
2018-02-14 18:00:00 7.9 18 Sudoeste 50 Sudoeste 0 -- -- 100
2018-02-14 17:00:00 7.9 17 Sur 51 Sudoeste 0 -- -- 100
2018-02-14 16:00:00 7.9 21 Sudoeste 50 Sudoeste 0 -- -- 100
2018-02-14 15:00:00 7.8 15 Sudoeste 44 Sudoeste 0 -- -- 100
2018-02-14 14:00:00 7.4 15 Sudoeste 45 Sudoeste 0 -- -- 100
2018-02-14 13:00:00 7.4 14 Sudoeste 50 Sudoeste 0.4 -- -- 100
2018-02-14 12:00:00 7 16 Sur 43 Oeste 0.6 -- -- 100
2018-02-14 11:00:00 6.6 17 Sudoeste 50 Sudoeste 0.2 -- -- 100
2018-02-14 10:00:00 6.3 19 Sudoeste 55 Sur 0 -- -- 100
2018-02-14 09:00:00 5.9 18 Sudoeste 54 Sudoeste 0.2 -- -- 100
2018-02-14 08:00:00 5.3 18 Sur 54 Sudoeste 0 -- -- 100
2018-02-14 07:00:00 4.8 19 Sudoeste 59 Oeste 0 -- -- 100
2018-02-14 06:00:00 4.4 19 Sur 61 Sudoeste 0 -- -- 100
2018-02-14 05:00:00 4.2 17 Sudoeste 45 Oeste 0 -- -- 100
2018-02-14 04:00:00 4.2 20 Sudoeste 48 Sur 0 -- -- 100
2018-02-14 03:00:00 3.9 15 Sudoeste 44 Sudoeste 0 -- -- 100
2018-02-14 02:00:00 4.2 17 Sudoeste 48 Oeste 0 -- -- 100
2018-02-14 01:00:00 4.2 14 Sudoeste 37 Sur 0 -- -- 100
2018-02-14 00:00:00 4.2 12 Sudeste 38 Sudoeste 0.6 -- -- 100
2018-02-13 23:00:00 4.3 14 Sur 35 Sudoeste 1.4 -- -- 100
2018-02-13 22:00:00 4.4 9 Sur 27 Oeste 1.4 -- -- 100
2018-02-13 21:00:00 4.6 15 Oeste 42 Sudoeste 2.6 -- -- 100
2018-02-13 20:00:00 4.5 12 Oeste 35 Oeste 2.6 -- -- 100
2018-02-13 19:00:00 4.2 7 Sudoeste 30 Sudoeste 2.2 -- -- 100
2018-02-13 18:00:00 3.9 6 Oeste 23 Sudoeste 3 -- -- 100
2018-02-13 17:00:00 3.6 6 Oeste 24 Oeste 1.8 -- -- 100
2018-02-13 16:00:00 3.5 10 Oeste 25 Sudoeste 1.2 -- -- 100
2018-02-13 15:00:00 3.4 12 Oeste 38 Oeste 1.4 -- -- 100
2018-02-13 14:00:00 3 12 Oeste 33 Sudoeste 2 -- -- 100
2018-02-13 13:00:00 2.7 14 Oeste 35 Oeste 2.6 -- -- 100
2018-02-13 12:00:00 2.7 17 Oeste 46 Sudoeste 6 -- -- 100
2018-02-13 11:00:00 2.2 13 Sur 38 Sudoeste 5.6 -- -- 100
2018-02-13 10:00:00 0.2 15 Sudoeste 45 Sudoeste 0.4 -- -- 100
2018-02-13 09:00:00 0 15 Sudoeste 51 Sudoeste 0.4 -- -- 100
2018-02-13 08:00:00 0.4 20 Sudoeste 57 Sudoeste 0.2 -- -- 100
2018-02-13 07:00:00 0.3 21 Sudoeste 57 Sur 0 -- -- 100
2018-02-13 06:00:00 0.1 18 Sur 51 Sudoeste 0 -- -- 98
2018-02-13 05:00:00 -0.7 13 Sudoeste 43 Sur 0 -- -- 97
2018-02-13 04:00:00 -0.8 14 Sur 38 Sur 0 -- -- 97
2018-02-13 03:00:00 -1.5 15 Sur 38 Sudoeste 0 -- -- 95
2018-02-13 02:00:00 -2.3 13 Sudoeste 31 Sudoeste 0 -- -- 92
2018-02-13 01:00:00 -1.8 10 Sudoeste 33 Sur 0 -- -- 95
2018-02-13 00:00:00 -1.7 12 Sudoeste 31 Oeste 0 -- -- 93
2018-02-12 23:00:00 -1.9 7 Sudoeste 17 Sudoeste 0 -- -- 97
2018-02-12 22:00:00 -1.7 4 Sur 11 Sudoeste 0 -- -- 98
2018-02-12 21:00:00 -1.6 5 Sudoeste 13 Sudoeste 0 -- -- 99
2018-02-12 20:00:00 -1.4 3 Sur 12 Sudoeste 0 -- -- 100
2018-02-12 19:00:00 -1 6 Oeste 14 Oeste 0 -- -- 99
2018-02-12 18:00:00 0 8 Oeste 17 Oeste 0 -- -- 99
2018-02-12 17:00:00 -0.5 9 Oeste 15 Oeste 0 -- -- 100
2018-02-12 16:00:00 -0.7 5 Oeste 17 Sudoeste 0 -- -- 100
2018-02-12 15:00:00 -0.8 8 Oeste 21 Oeste 0 -- -- 100
2018-02-12 14:00:00 -1.1 11 Oeste 19 Oeste 0.4 -- -- 100
2018-02-12 13:00:00 -1.4 13 Oeste 19 Sudoeste 0.4 -- -- 100
2018-02-12 12:00:00 -1.6 7 Oeste 14 Sudoeste 0 -- -- 100
2018-02-12 11:00:00 -1.2 6 Oeste 9 Oeste 0 -- -- 100
2018-02-12 10:00:00 -1.6 0 Calma 5 Oeste 0 -- -- 100
2018-02-12 09:00:00 -2.4 3 Noroeste 6 Nordeste 0 -- -- 100
2018-02-12 08:00:00 -2.6 4 Nordeste 8 Nordeste 0 -- -- 100
2018-02-12 07:00:00 -2.4 4 Este 17 Norte 0 -- -- 100
2018-02-12 06:00:00 -2.3 6 Noroeste 14 Noroeste 0 -- -- 100
2018-02-12 05:00:00 -1.8 6 Noroeste 15 Oeste 0 -- -- 100
2018-02-12 04:00:00 -2 8 Noroeste 13 Noroeste 0 -- -- 100
2018-02-12 03:00:00 -1.8 4 Nordeste 10 Nordeste 0 -- -- 100
2018-02-12 02:00:00 -1.5 4 Noroeste 10 Norte 0 -- -- 100
2018-02-12 01:00:00 -1.4 3 Nordeste 11 Norte 0 -- -- 100
2018-02-12 00:00:00 -1.2 5 Nordeste 14 Nordeste 0 -- -- 100
2018-02-11 23:00:00 -0.8 6 Nordeste 20 Nordeste 0 -- -- 100
2018-02-11 22:00:00 -0.5 9 Norte 21 Norte 0 -- -- 100
2018-02-11 21:00:00 0 6 Norte 23 Noroeste 0 -- -- 100
2018-02-11 20:00:00 0.8 8 Noroeste 23 Noroeste 0 -- -- 100
2018-02-11 19:00:00 1.5 13 Noroeste 27 Norte 0.4 -- -- 100
2018-02-11 18:00:00 2.7 11 Noroeste 25 Noroeste 0.6 -- -- 100
2018-02-11 17:00:00 3.2 13 Noroeste 35 Oeste 0.8 -- -- 100
2018-02-11 16:00:00 4.2 19 Oeste 41 Oeste 0.6 -- -- 100
2018-02-11 15:00:00 5 13 Noroeste 30 Sudoeste 3 -- -- 100
2018-02-11 14:00:00 5.6 14 Sudoeste 41 Oeste 3.8 -- -- 100
2018-02-11 13:00:00 5.7 14 Sur 37 Sudoeste 1.4 -- -- 100
2018-02-11 12:00:00 5.4 12 Sudoeste 35 Sudoeste 1.2 -- -- 100
2018-02-11 11:00:00 5.1 10 Sudoeste 36 Sudoeste 0.2 -- -- 100
2018-02-11 10:00:00 5.3 10 Sudoeste 34 Sudoeste 0.4 -- -- 100
2018-02-11 09:00:00 5.2 8 Sudoeste 32 Sudoeste 0.4 -- -- 100
2018-02-11 08:00:00 5.3 9 Sudoeste 29 Oeste 0.2 -- -- 100
2018-02-11 07:00:00 5.3 8 Sudoeste 23 Sudoeste 0.6 -- -- 100
2018-02-11 06:00:00 5.2 11 Sudoeste 33 Sudoeste 0.6 -- -- 100
2018-02-11 05:00:00 4.7 10 Oeste 29 Sudoeste 0.4 -- -- 100
2018-02-11 04:00:00 4.5 12 Oeste 32 Sudoeste 0.2 -- -- 100
2018-02-11 03:00:00 4.3 13 Oeste 32 Sudoeste 0.4 -- -- 100
2018-02-11 02:00:00 3.9 13 Oeste 32 Sudoeste 0.2 -- -- 100
2018-02-11 01:00:00 3.4 11 Oeste 30 Sudoeste 0.6 -- -- 100
2018-02-11 00:00:00 3 10 Oeste 23 Oeste 0.6 -- -- 100
2018-02-10 23:00:00 2.7 9 Oeste 20 Oeste 0.4 -- -- 100
2018-02-10 22:00:00 2.4 8 Oeste 21 Oeste 0.2 -- -- 100
2018-02-10 21:00:00 2.1 6 Oeste 17 Sudoeste 0.4 -- -- 100
2018-02-10 20:00:00 1.8 5 Oeste 15 Oeste 0.4 -- -- 100
2018-02-10 19:00:00 1.6 4 Sur 13 Sudoeste 0.2 -- -- 100
2018-02-10 18:00:00 1.6 7 Oeste 22 Oeste 0.6 -- -- 100
2018-02-10 17:00:00 1.6 10 Oeste 21 Sudoeste 0 -- -- 100
2018-02-10 16:00:00 1.5 6 Oeste 15 Noroeste 0 -- -- 100
2018-02-10 15:00:00 1.4 8 Oeste 16 Oeste 0 -- -- 100
2018-02-10 14:00:00 0.9 8 Oeste 18 Oeste 0 -- -- 100
2018-02-10 13:00:00 0.9 5 Oeste 13 Oeste 0 -- -- 100
2018-02-10 12:00:00 0.3 5 Oeste 13 Noroeste 0 -- -- 100
2018-02-10 11:00:00 0.2 5 Noroeste 17 Oeste 0.2 -- -- 100
2018-02-10 10:00:00 -0.2 10 Oeste 19 Noroeste 0 -- -- 100
2018-02-10 09:00:00 -0.8 11 Oeste 18 Oeste 0 -- -- 100
2018-02-10 08:00:00 -1.1 8 Noroeste 16 Noroeste 0 -- -- 100
2018-02-10 07:00:00 -0.9 9 Oeste 15 Oeste 0 -- -- 100
2018-02-10 06:00:00 -1 5 Noroeste 15 Noroeste 0 -- -- 100
2018-02-10 05:00:00 -1.2 5 Noroeste 11 Noroeste 0 -- -- 100
2018-02-10 04:00:00 -1.3 4 Norte 8 Este 0 -- -- 100
2018-02-10 03:00:00 -1.3 4 Nordeste 12 Nordeste 0 -- -- 100
2018-02-10 02:00:00 -1.3 6 Nordeste 20 Nordeste 0 -- -- 100
2018-02-10 01:00:00 -1 8 Nordeste 21 Nordeste 0 -- -- 100
2018-02-10 00:00:00 -1.3 7 Nordeste 18 Nordeste 0 -- -- 100
2018-02-09 23:00:00 -1.1 8 Nordeste 21 Nordeste 0 -- -- 100
2018-02-09 22:00:00 -0.9 10 Nordeste 22 Nordeste 0 -- -- 100
2018-02-09 21:00:00 -0.8 9 Nordeste 18 Nordeste 0 -- -- 100
2018-02-09 20:00:00 -0.6 9 Nordeste 24 Nordeste 0 -- -- 100
2018-02-09 19:00:00 -0.3 6 Nordeste 19 Nordeste 0 -- -- 100
2018-02-09 18:00:00 0 10 Nordeste 21 Nordeste 0.2 -- -- 100
2018-02-09 17:00:00 0.9 11 Nordeste 28 Nordeste 0 -- -- 100
2018-02-09 16:00:00 1.3 12 Nordeste 31 Nordeste 0 -- -- 100
2018-02-09 15:00:00 2 10 Nordeste 32 Nordeste 0.4 -- -- 100
2018-02-09 14:00:00 2.3 10 Norte 28 Norte 0 -- -- 100
2018-02-09 13:00:00 1.7 11 Noroeste 24 Norte 0 -- -- 100
2018-02-09 12:00:00 1.8 10 Noroeste 27 Norte 0.2 -- -- 100
2018-02-09 11:00:00 1.9 13 Noroeste 31 Norte 0.2 -- -- 100
2018-02-09 10:00:00 1.9 8 Noroeste 19 Oeste 0 -- -- 100
2018-02-09 09:00:00 1.1 13 Oeste 23 Oeste 0.2 -- -- 100
2018-02-09 08:00:00 0.9 15 Oeste 22 Oeste 0.2 -- -- 100
2018-02-09 07:00:00 1.3 12 Oeste 30 Noroeste 0 -- -- 100
2018-02-09 06:00:00 0.9 16 Oeste 26 Oeste 0.2 -- -- 100
2018-02-09 05:00:00 1 12 Oeste 23 Sudoeste 0.4 -- -- 100
2018-02-09 04:00:00 0.9 8 Sudoeste 21 Sudoeste 1.2 -- -- 100
2018-02-09 03:00:00 0.9 6 Sudoeste 19 Oeste 1.4 -- -- 100
2018-02-09 02:00:00 0.6 5 Sudoeste 14 Sudoeste 0.4 -- -- 100
2018-02-09 01:00:00 0.2 4 Sudoeste 11 Sudoeste 0.6 -- -- 100
2018-02-09 00:00:00 -0.6 8 Sudoeste 13 Sudoeste 0 -- -- 100
2018-02-08 23:00:00 -0.3 12 Sudoeste 22 Sudoeste 0 -- -- 98
2018-02-08 22:00:00 0 13 Sudoeste 21 Sudoeste 0 -- -- 91
2018-02-08 21:00:00 -0.2 6 Sudoeste 17 Sudoeste 0 -- -- 91
2018-02-08 20:00:00 -0.4 10 Sudoeste 15 Sudoeste 0 -- -- 97
2018-02-08 19:00:00 -0.3 8 Oeste 14 Oeste 0 -- -- 98
2018-02-08 18:00:00 0.2 7 Oeste 9 Oeste 0.2 -- -- 96
2018-02-08 17:00:00 0.4 4 Oeste 8 Oeste 0.8 -- -- 96
2018-02-08 16:00:00 0.2 3 Sur 6 Este 0.8 -- -- 96
2018-02-08 15:00:00 -0.2 3 Sur 6 Sur 1 -- -- 98
2018-02-08 14:00:00 0.1 0 Calma 6 Este 2.4 -- -- 99
2018-02-08 13:00:00 -0.6 3 Nordeste 9 Este 2.6 -- -- 100
2018-02-08 12:00:00 -0.7 2 Nordeste 8 Nordeste 1.4 -- -- 100
2018-02-08 11:00:00 -2.3 2 Nordeste 6 Nordeste 0 -- -- 100
2018-02-08 10:00:00 -3.3 2 Este 9 Nordeste 0 -- -- 100
2018-02-08 09:00:00 -3.8 3 Nordeste 10 Nordeste 0 -- -- 100
2018-02-08 08:00:00 -4 4 Nordeste 10 Nordeste 0 -- -- 100
2018-02-08 07:00:00 -4.4 4 Nordeste 10 Nordeste 0 -- -- 100
2018-02-08 06:00:00 -4.4 6 Nordeste 10 Nordeste 0 -- -- 100
2018-02-08 05:00:00 -4.1 4 Nordeste 12 Nordeste 0 -- -- 100
2018-02-08 04:00:00 -3.9 4 Este 14 Nordeste 0 -- -- 100
2018-02-08 03:00:00 -3.9 5 Nordeste 12 Nordeste 0 -- -- 100
2018-02-08 02:00:00 -3.8 6 Nordeste 15 Este 0 -- -- 100
2018-02-08 01:00:00 -3.4 7 Nordeste 20 Nordeste 0 -- -- 100
2018-02-08 00:00:00 -3.3 7 Nordeste 20 Nordeste 0 -- -- 100
2018-02-07 23:00:00 -3.3 7 Nordeste 21 Nordeste 0 -- -- 100
2018-02-07 22:00:00 -3.2 9 Nordeste 22 Nordeste 0 -- -- 100
2018-02-07 21:00:00 -3.3 7 Nordeste 20 Nordeste 0 -- -- 100
2018-02-07 20:00:00 -3.5 9 Nordeste 24 Nordeste 0 -- -- 100
2018-02-07 19:00:00 -3 9 Nordeste 18 Nordeste 0.2 -- -- 100
2018-02-07 18:00:00 -2.5 10 Nordeste 31 Nordeste 0.6 -- -- 100
2018-02-07 17:00:00 -2 11 Nordeste 27 Nordeste 1 -- -- 100
2018-02-07 16:00:00 -1.8 9 Nordeste 23 Nordeste 0.8 -- -- 100
2018-02-07 15:00:00 -1.1 8 Nordeste 22 Norte 1.2 -- -- 100
2018-02-07 14:00:00 -1.3 7 Nordeste 27 Este 1 -- -- 100
2018-02-07 13:00:00 -2 11 Nordeste 30 Nordeste 0.2 -- -- 100
2018-02-07 12:00:00 -1.8 6 Nordeste 24 Nordeste 0 -- -- 100
2018-02-07 11:00:00 -2.3 11 Nordeste 27 Este 0 -- -- 100
2018-02-07 10:00:00 -2.7 9 Nordeste 22 Nordeste 0 -- -- 100
2018-02-07 09:00:00 -2.9 6 Nordeste 21 Nordeste 0 -- -- 100
2018-02-07 08:00:00 -2.8 8 Nordeste 23 Nordeste 0 -- -- 100
2018-02-07 07:00:00 -2.6 6 Nordeste 21 Nordeste 0 -- -- 100
2018-02-07 06:00:00 -2.7 10 Nordeste 32 Nordeste 0 -- -- 100
2018-02-07 05:00:00 -2.5 9 Nordeste 31 Nordeste 0 -- -- 100
2018-02-07 04:00:00 -2.7 13 Nordeste 31 Nordeste 0 -- -- 100
2018-02-07 03:00:00 -2.4 12 Nordeste 39 Nordeste 0 -- -- 100
2018-02-07 02:00:00 -2.1 11 Nordeste 28 Nordeste 0 -- -- 100
2018-02-07 01:00:00 -2.3 11 Nordeste 35 Nordeste 0 -- -- 100
2018-02-07 00:00:00 -2 11 Nordeste 31 Nordeste 0 -- -- 100
2018-02-06 23:00:00 -2 8 Noroeste 22 Nordeste 0 -- -- 100
2018-02-06 22:00:00 -2.1 8 Nordeste 21 Nordeste 0 -- -- 100
2018-02-06 21:00:00 -2.3 9 Nordeste 24 Nordeste 0 -- -- 100
2018-02-06 20:00:00 -2.5 8 Nordeste 26 Nordeste 0 -- -- 100
2018-02-06 19:00:00 -2.1 10 Nordeste 23 Nordeste 0.2 -- -- 100
2018-02-06 18:00:00 -1.5 9 Nordeste 22 Nordeste 0.4 -- -- 100
2018-02-06 17:00:00 -1.1 8 Nordeste 21 Noroeste 0.6 -- -- 100
2018-02-06 16:00:00 -1.1 7 Norte 19 Norte 0.8 -- -- 100
2018-02-06 15:00:00 -1.2 8 Norte 21 Nordeste 0.8 -- -- 100
2018-02-06 14:00:00 -1.7 9 Nordeste 24 Norte 0.6 -- -- 100
2018-02-06 13:00:00 -1.9 8 Noroeste 20 Norte 0.2 -- -- 100
2018-02-06 12:00:00 -2 6 Nordeste 19 Nordeste 0 -- -- 100
2018-02-06 11:00:00 -2.5 8 Nordeste 20 Nordeste 0 -- -- 100
2018-02-06 10:00:00 -2.7 9 Nordeste 22 Nordeste 0 -- -- 100
2018-02-06 09:00:00 -3.5 10 Nordeste 21 Nordeste 0 -- -- 100
2018-02-06 08:00:00 -4 9 Nordeste 31 Nordeste 0 -- -- 100
2018-02-06 07:00:00 -4.1 11 Nordeste 27 Nordeste 0 -- -- 100
2018-02-06 06:00:00 -4.3 12 Nordeste 26 Nordeste 0 -- -- 100
2018-02-06 05:00:00 -4.3 14 Nordeste 32 Nordeste 0 -- -- 100
2018-02-06 04:00:00 -4.5 13 Nordeste 37 Nordeste 0 -- -- 100
2018-02-06 03:00:00 -4.5 12 Nordeste 26 Nordeste 0 -- -- 100
2018-02-06 02:00:00 -4.7 11 Nordeste 27 Nordeste 0 -- -- 99
2018-02-06 01:00:00 -4.7 12 Nordeste 35 Nordeste 0 -- -- 99
2018-02-06 00:00:00 -4.4 12 Nordeste 34 Este 0 -- -- 100
2018-02-05 23:00:00 -4.5 14 Nordeste 40 Nordeste 0 -- -- 100
2018-02-05 22:00:00 -4.1 14 Nordeste 30 Nordeste 0 -- -- 100
2018-02-05 21:00:00 -4.1 10 Nordeste 31 Este 0 -- -- 100
2018-02-05 20:00:00 -3.7 12 Nordeste 30 Nordeste 0 -- -- 100
2018-02-05 19:00:00 -3.5 10 Nordeste 30 Norte 0 -- -- 100
2018-02-05 18:00:00 -3.5 12 Nordeste 36 Norte 0.2 -- -- 100
2018-02-05 17:00:00 -3.1 13 Nordeste 36 Nordeste 0 -- -- 100
2018-02-05 16:00:00 -2.5 14 Nordeste 37 Nordeste 0.2 -- -- 100
2018-02-05 15:00:00 -3 12 Nordeste 37 Nordeste 0 -- -- 100
2018-02-05 14:00:00 -2.7 16 Nordeste 40 Este 0.4 -- -- 100
2018-02-05 13:00:00 -2 16 Nordeste 40 Nordeste 0 -- -- 100
2018-02-05 12:00:00 -2.9 16 Nordeste 43 Nordeste 0 -- -- 100
2018-02-05 11:00:00 -2.6 15 Nordeste 42 Nordeste 0 -- -- 100
2018-02-05 10:00:00 -1.9 12 Nordeste 31 Nordeste 0 -- -- 100
2018-02-05 09:00:00 -1.6 14 Nordeste 32 Nordeste 0 -- -- 100
2018-02-05 08:00:00 -1.6 14 Nordeste 33 Nordeste 0 -- -- 100
2018-02-05 07:00:00 -1.5 12 Nordeste 33 Nordeste 0 -- -- 100
2018-02-05 06:00:00 -1.4 15 Nordeste 37 Este 0 -- -- 100
2018-02-05 05:00:00 -1.3 10 Nordeste 34 Nordeste 0 -- -- 100
2018-02-05 04:00:00 -1.5 12 Nordeste 28 Nordeste 0 -- -- 100
2018-02-05 03:00:00 -1.5 9 Nordeste 27 Nordeste 0 -- -- 100
2018-02-05 02:00:00 -1.5 12 Nordeste 32 Nordeste 0 -- -- 100
2018-02-05 01:00:00 -1.5 10 Nordeste 41 Nordeste 0 -- -- 100
2018-02-05 00:00:00 -1.4 11 Nordeste 23 Este 0 -- -- 100
2018-02-04 23:00:00 -1.2 12 Nordeste 26 Nordeste 0 -- -- 100
2018-02-04 22:00:00 -1.1 10 Nordeste 30 Nordeste 0 -- -- 100
2018-02-04 21:00:00 -0.9 10 Nordeste 29 Nordeste 0 -- -- 100
2018-02-04 20:00:00 -0.8 10 Nordeste 25 Nordeste 0.2 -- -- 100
2018-02-04 19:00:00 -0.7 9 Nordeste 27 Nordeste 0 -- -- 100
2018-02-04 18:00:00 -0.5 7 Nordeste 22 Norte 0.4 -- -- 100
2018-02-04 17:00:00 -0.2 8 Nordeste 23 Nordeste 0.8 -- -- 100
2018-02-04 16:00:00 -0.2 8 Nordeste 23 Norte 1.4 -- -- 100
2018-02-04 15:00:00 -0.2 8 Nordeste 23 Nordeste 2.8 -- -- 100
2018-02-04 14:00:00 -0.2 6 Nordeste 18 Nordeste 3.4 -- -- 100
2018-02-04 13:00:00 -0.4 7 Nordeste 18 Nordeste 0.8 -- -- 100
2018-02-04 12:00:00 -0.8 6 Nordeste 13 Nordeste 0.2 -- -- 100
2018-02-04 11:00:00 -1.1 6 Nordeste 16 Nordeste 0 -- -- 100
2018-02-04 10:00:00 -2.2 6 Noroeste 15 Norte 0 -- -- 100
2018-02-04 09:00:00 -2.4 6 Norte 17 Norte 0 -- -- 100
2018-02-04 08:00:00 -2.3 9 Noroeste 15 Noroeste 0 -- -- 100
2018-02-04 07:00:00 -2.3 5 Noroeste 18 Oeste 0 -- -- 100
2018-02-04 06:00:00 -2.3 8 Noroeste 26 Noroeste 0 -- -- 100
2018-02-04 05:00:00 -2.1 9 Noroeste 23 Noroeste 0 -- -- 100
2018-02-04 04:00:00 -2 9 Noroeste 19 Noroeste 0 -- -- 100
2018-02-04 03:00:00 -1.7 6 Norte 22 Noroeste 0 -- -- 100
2018-02-04 02:00:00 -1.8 12 Noroeste 30 Noroeste 0 -- -- 100
2018-02-04 01:00:00 -1.1 6 Norte 32 Norte 0 -- -- 100
2018-02-04 00:00:00 -0.9 10 Noroeste 33 Norte 0 -- -- 100
2018-02-03 23:00:00 -0.7 14 Noroeste 32 Noroeste 0 -- -- 100
2018-02-03 22:00:00 -0.2 16 Noroeste 41 Oeste 0.4 -- -- 100
2018-02-03 21:00:00 0.6 15 Oeste 32 Oeste 1.2 -- -- 100
2018-02-03 20:00:00 0.8 18 Noroeste 36 Noroeste 1.2 -- -- 100
2018-02-03 19:00:00 1 18 Oeste 36 Noroeste 1 -- -- 100
2018-02-03 18:00:00 1.1 21 Oeste 39 Oeste 1.6 -- -- 100
2018-02-03 17:00:00 1.5 19 Oeste 32 Noroeste 1.8 -- -- 100
2018-02-03 16:00:00 1.7 14 Oeste 27 Oeste 2.2 -- -- 100
2018-02-03 15:00:00 1.6 15 Oeste 32 Oeste 2.8 -- -- 100
2018-02-03 14:00:00 1.5 18 Oeste 31 Oeste 3.2 -- -- 100
2018-02-03 13:00:00 1.3 13 Oeste 33 Oeste 3.2 -- -- 100
2018-02-03 12:00:00 1.1 10 Oeste 26 Oeste 3.2 -- -- 100
2018-02-03 11:00:00 0.6 15 Oeste 32 Sudoeste 1 -- -- 100
2018-02-03 10:00:00 0.1 10 Sudoeste 26 Sudoeste 0 -- -- 100
2018-02-03 09:00:00 -0.3 8 Sudoeste 22 Sudoeste 0 -- -- 100
2018-02-03 08:00:00 -0.5 6 Sudoeste 18 Oeste 0 -- -- 100
2018-02-03 07:00:00 -0.8 6 Sudoeste 23 Sudoeste 0 -- -- 100
2018-02-03 06:00:00 -1 11 Oeste 27 Oeste 0 -- -- 100
2018-02-03 05:00:00 -1.1 9 Oeste 20 Oeste 0 -- -- 100
2018-02-03 04:00:00 -1.4 9 Oeste 24 Oeste 0 -- -- 100
2018-02-03 03:00:00 -1.3 12 Oeste 19 Sudoeste 0 -- -- 100
2018-02-03 02:00:00 -1.4 11 Oeste 18 Oeste 0 -- -- 100
2018-02-03 01:00:00 -1.3 12 Oeste 18 Oeste 0 -- -- 100
2018-02-03 00:00:00 -1.4 10 Oeste 17 Oeste 0 -- -- 100
2018-02-02 23:00:00 -1.4 9 Noroeste 19 Noroeste 0 -- -- 100
2018-02-02 22:00:00 -1.6 9 Noroeste 18 Noroeste 0 -- -- 100
2018-02-02 21:00:00 -1.8 6 Noroeste 22 Noroeste 0 -- -- 100
2018-02-02 20:00:00 -1.6 9 Noroeste 19 Noroeste 0.2 -- -- 100
2018-02-02 19:00:00 -1.4 7 Noroeste 18 Oeste 0.2 -- -- 100
2018-02-02 18:00:00 -0.8 6 Nordeste 21 Nordeste 1.2 -- -- 100
2018-02-02 17:00:00 -1.1 8 Norte 27 Norte 1.2 -- -- 100
2018-02-02 16:00:00 -0.6 8 Nordeste 23 Nordeste 1.8 -- -- 99
2018-02-02 15:00:00 -0.8 10 Nordeste 23 Nordeste 3.2 -- -- 100
2018-02-02 14:00:00 -0.1 8 Nordeste 19 Nordeste 2.4 -- -- 100
2018-02-02 13:00:00 -0.3 9 Nordeste 24 Este 0.6 -- -- 100
2018-02-02 12:00:00 -1.2 6 Nordeste 14 Oeste 0 -- -- 100
2018-02-02 11:00:00 -1.5 8 Noroeste 20 Noroeste 0 -- -- 100
2018-02-02 10:00:00 -2.1 5 Nordeste 18 Noroeste 0 -- -- 100
2018-02-02 09:00:00 -2.3 6 Norte 19 Nordeste 0 -- -- 100
2018-02-02 08:00:00 -2.2 8 Noroeste 23 Norte 0 -- -- 100
2018-02-02 07:00:00 -2.2 6 Norte 18 Nordeste 0 -- -- 100
2018-02-02 06:00:00 -2.2 7 Noroeste 15 Oeste 0 -- -- 100
2018-02-02 05:00:00 -2 3 Norte 17 Norte 0 -- -- 100
2018-02-02 04:00:00 -2 6 Nordeste 24 Este 0 -- -- 100
2018-02-02 03:00:00 -1.9 7 Nordeste 23 Nordeste 0 -- -- 100
2018-02-02 02:00:00 -2.1 9 Nordeste 24 Norte 0 -- -- 100
2018-02-02 01:00:00 -1.9 10 Nordeste 40 Norte 0 -- -- 100
2018-02-02 00:00:00 -1.8 9 Nordeste 24 Nordeste 0 -- -- 100
2018-02-01 23:00:00 -1.9 8 Norte 33 Noroeste 0 -- -- 100
2018-02-01 22:00:00 -1.1 8 Norte 22 Norte 0 -- -- 100
2018-02-01 21:00:00 -1.2 11 Noroeste 24 Noroeste 0 -- -- 100
2018-02-01 20:00:00 -1.4 5 Norte 29 Noroeste 0 -- -- 100
2018-02-01 19:00:00 -1.4 14 Noroeste 36 Norte 0 -- -- 100
2018-02-01 18:00:00 -1.1 14 Noroeste 27 Noroeste 0 -- -- 100
2018-02-01 17:00:00 -0.9 14 Noroeste 28 Noroeste 0.2 -- -- 100
2018-02-01 16:00:00 -0.9 11 Noroeste 32 Noroeste 0.4 -- -- 100
2018-02-01 15:00:00 -0.4 10 Noroeste 35 Noroeste 0.2 -- -- 100
2018-02-01 14:00:00 0.5 12 Noroeste 35 Noroeste 0 -- -- 100
2018-02-01 13:00:00 0.5 13 Noroeste 39 Noroeste 0.4 -- -- 100
2018-02-01 12:00:00 0.4 19 Oeste 35 Oeste 0.6 -- -- 100
2018-02-01 11:00:00 0.5 17 Noroeste 31 Oeste 0 -- -- 100
2018-02-01 10:00:00 0.4 17 Noroeste 32 Norte 0 -- -- 100
2018-02-01 09:00:00 0.3 14 Noroeste 29 Noroeste 0 -- -- 100
2018-02-01 08:00:00 0.4 14 Noroeste 26 Noroeste 0 -- -- 100
2018-02-01 07:00:00 1 14 Noroeste 30 Noroeste 0 -- -- 100
2018-02-01 06:00:00 1.2 11 Noroeste 27 Noroeste 1.2 -- -- 100
2018-02-01 05:00:00 2.3 10 Noroeste 24 Noroeste 0.6 -- -- 100
2018-02-01 04:00:00 2.7 11 Oeste 21 Oeste 0.4 -- -- 100
2018-02-01 03:00:00 3 12 Oeste 25 Oeste 0.4 -- -- 100
2018-02-01 02:00:00 3 10 Oeste 18 Noroeste 0 -- -- 100
2018-02-01 01:00:00 3 8 Oeste 17 Oeste 0.2 -- -- 100
2018-02-01 00:00:00 3.7 9 Oeste 16 Oeste 0 -- -- 100
2018-01-31 23:00:00 4.1 8 Oeste 17 Oeste 0 -- -- 100
2018-01-31 22:00:00 5.1 6 Noroeste 15 Noroeste 0 -- -- 99
2018-01-31 21:00:00 4.6 5 Noroeste 14 Noroeste 0 -- -- 93
2018-01-31 20:00:00 3.5 10 Oeste 24 Oeste 0 -- -- 98
2018-01-31 19:00:00 4.8 14 Oeste 22 Oeste 0 -- -- 92
2018-01-31 18:00:00 6.8 13 Oeste 22 Oeste 0 -- -- 69
2018-01-31 17:00:00 8.8 10 Oeste 24 Oeste 0 -- -- 58
2018-01-31 16:00:00 9.4 7 Oeste 22 Oeste 0 -- -- 51
2018-01-31 15:00:00 9.6 10 Oeste 24 Oeste 0 -- -- 51
2018-01-31 14:00:00 10.4 8 Oeste 17 Oeste 0 -- -- 50
2018-01-31 13:00:00 9.8 9 Sudoeste 17 Sudoeste 0 -- -- 49
2018-01-31 12:00:00 9.3 8 Sudoeste 17 Oeste 0 -- -- 51
2018-01-31 11:00:00 8 6 Oeste 15 Sudoeste 0 -- -- 57
2018-01-31 10:00:00 6.8 5 Sur 15 Sudoeste 0 -- -- 58
2018-01-31 09:00:00 5.6 6 Oeste 15 Sudoeste 0 -- -- 61
2018-01-31 08:00:00 6 8 Sudoeste 14 Sudoeste 0 -- -- 54
2018-01-31 07:00:00 5.9 9 Sudoeste 14 Sudoeste 0 -- -- 52
2018-01-31 06:00:00 5.9 10 Sudoeste 16 Oeste 0 -- -- 56
2018-01-31 05:00:00 5.9 11 Sudoeste 16 Sudoeste 0 -- -- 64
2018-01-31 04:00:00 5.7 9 Oeste 12 Oeste 0 -- -- 72
2018-01-31 03:00:00 5.5 7 Sudoeste 12 Sudoeste 0 -- -- 71
2018-01-31 02:00:00 6.1 8 Sudoeste 9 Sudoeste 0 -- -- 69
2018-01-31 01:00:00 5.3 6 Sur 8 Sur 0 -- -- 80
2018-01-31 00:00:00 4.8 3 Sur 4 Sur 0 -- -- 82
2018-01-30 23:00:00 5.4 0 Calma 6 Sudeste 0 -- -- 80
2018-01-30 22:00:00 5.8 3 Este 5 Nordeste 0 -- -- 78
2018-01-30 21:00:00 6.2 3 Nordeste 5 Nordeste 0 -- -- 77
2018-01-30 20:00:00 6.9 3 Norte 11 Noroeste 0 -- -- 73
2018-01-30 19:00:00 7.8 7 Noroeste 11 Noroeste 0 -- -- 67
2018-01-30 18:00:00 10.1 4 Noroeste 9 Oeste 0 -- -- 62
2018-01-30 17:00:00 10.9 5 Oeste 8 Oeste 0 -- -- 64
2018-01-30 16:00:00 10.4 3 Norte 9 Norte 0 -- -- 61
2018-01-30 15:00:00 10.8 5 Noroeste 9 Norte 0 -- -- 60
2018-01-30 14:00:00 10.5 4 Norte 9 Noroeste 0 -- -- 60
2018-01-30 13:00:00 10.7 3 Noroeste 8 Noroeste 0 -- -- 56
2018-01-30 12:00:00 10.4 3 Nordeste 10 Este 0 -- -- 54
2018-01-30 11:00:00 9.2 0 Calma 11 Sur 0 -- -- 53
2018-01-30 10:00:00 7.7 5 Sur 13 Sur 0.2 -- -- 53
2018-01-30 09:00:00 5.7 7 Sur 11 Sudeste 0 -- -- 57
2018-01-30 08:00:00 5.9 8 Sudeste 12 Sudeste 0 -- -- 60
2018-01-30 07:00:00 5.1 2 Oeste 6 Sur 0 -- -- 62
2018-01-30 06:00:00 6.6 5 Sur 13 Este 0 -- -- 56
2018-01-30 05:00:00 6.7 7 Sudeste 11 Sur 0 -- -- 56
2018-01-30 04:00:00 7 9 Sudeste 17 Sudeste 0 -- -- 55
2018-01-30 03:00:00 7.7 10 Sudeste 18 Sudeste 0 -- -- 52
2018-01-30 02:00:00 7.8 12 Sudeste 17 Sudeste 0 -- -- 57
2018-01-30 01:00:00 7.3 11 Sudeste 16 Sudeste 0 -- -- 65
2018-01-30 00:00:00 4.6 5 Este 12 Este 0 -- -- 79
2018-01-29 23:00:00 5 4 Este 12 Este 0 -- -- 78
2018-01-29 22:00:00 5.1 5 Este 15 Este 0 -- -- 78
2018-01-29 21:00:00 5.2 5 Este 15 Este 0 -- -- 79
2018-01-29 20:00:00 6 6 Este 15 Este 0 -- -- 75
2018-01-29 19:00:00 7.1 6 Este 13 Nordeste 0 -- -- 68
2018-01-29 18:00:00 7.8 5 Este 13 Este 0 -- -- 65
2018-01-29 17:00:00 9.2 5 Este 13 Nordeste 0 -- -- 60
2018-01-29 16:00:00 9.4 7 Nordeste 18 Este 0 -- -- 58
2018-01-29 15:00:00 10.2 7 Nordeste 21 Nordeste 0 -- -- 62
2018-01-29 14:00:00 10.1 5 Este 17 Nordeste 0 -- -- 61
2018-01-29 13:00:00 9.9 5 Este 16 Nordeste 0 -- -- 57
2018-01-29 12:00:00 9.6 5 Este 15 Nordeste 0 -- -- 58
2018-01-29 11:00:00 8.2 7 Este 14 Este 0 -- -- 62
2018-01-29 10:00:00 7.2 4 Este 12 Nordeste 0 -- -- 70
2018-01-29 09:00:00 5.3 3 Sudeste 17 Sudeste 0 -- -- 70
2018-01-29 08:00:00 6 12 Sudeste 21 Sudeste 0 -- -- 69
2018-01-29 07:00:00 6.5 14 Sudeste 24 Sudeste 0 -- -- 67
2018-01-29 06:00:00 6 14 Sudeste 34 Sudeste 0 -- -- 70
2018-01-29 05:00:00 5.9 16 Sudeste 39 Sudeste 0 -- -- 73
2018-01-29 04:00:00 5.8 21 Sudeste 42 Este 0 -- -- 74
2018-01-29 03:00:00 5.7 20 Sudeste 42 Sudeste 0 -- -- 72
2018-01-29 02:00:00 6.2 18 Sudeste 42 Este 0 -- -- 71
2018-01-29 01:00:00 5.7 18 Sudeste 39 Sudeste 0 -- -- 72
2018-01-29 00:00:00 6 21 Sudeste 46 Sudeste 0 -- -- 71
2018-01-28 23:00:00 6 21 Este 45 Sudeste 0 -- -- 69
2018-01-28 22:00:00 5.2 12 Este 32 Sudeste 0 -- -- 75
2018-01-28 21:00:00 5.5 14 Este 36 Este 0 -- -- 75
2018-01-28 20:00:00 5.4 12 Este 36 Este 0 -- -- 79
2018-01-28 19:00:00 5 6 Este 19 Sudeste 0 -- -- 85
2018-01-28 18:00:00 6.2 4 Este 11 Este 0 -- -- 79
2018-01-28 17:00:00 7.2 5 Este 13 Este 0 -- -- 84
2018-01-28 16:00:00 6.8 4 Este 16 Este 0 -- -- 86
2018-01-28 15:00:00 7 4 Este 14 Este 0 -- -- 81
2018-01-28 14:00:00 6.4 5 Este 14 Sudeste 0 -- -- 86
2018-01-28 13:00:00 5.3 6 Este 17 Este 0 -- -- 96
2018-01-28 12:00:00 4.1 10 Este 17 Sudeste 0 -- -- 100
2018-01-28 11:00:00 2.9 5 Este 14 Sudeste 0 -- -- 100
2018-01-28 10:00:00 2 5 Este 19 Este 0 -- -- 100
2018-01-28 09:00:00 1.4 8 Este 24 Nordeste 0 -- -- 100
2018-01-28 08:00:00 1.9 9 Este 24 Este 0 -- -- 100
2018-01-28 07:00:00 2.3 7 Este 27 Este 0 -- -- 100
2018-01-28 06:00:00 2.7 6 Este 19 Nordeste 0 -- -- 100
2018-01-28 05:00:00 3.1 6 Este 23 Este 0 -- -- 100
2018-01-28 04:00:00 3.2 7 Este 21 Este 0 -- -- 100
2018-01-28 03:00:00 3.4 9 Nordeste 25 Este 0 -- -- 100
2018-01-28 02:00:00 3.6 12 Este 29 Nordeste 0 -- -- 100
2018-01-28 01:00:00 4 13 Nordeste 31 Nordeste 0 -- -- 100
2018-01-28 00:00:00 3.6 10 Nordeste 26 Nordeste 0 -- -- 100
2018-01-27 23:00:00 3.4 11 Este 26 Este 0 -- -- 100
2018-01-27 22:00:00 3 8 Este 17 Este 0.2 -- -- 100
2018-01-27 21:00:00 2.8 6 Este 16 Este 0.2 -- -- 100
2018-01-27 20:00:00 2.9 4 Este 15 Nordeste 0.4 -- -- 100
2018-01-27 19:00:00 3 3 Este 14 Este 0.2 -- -- 100
2018-01-27 18:00:00 3.2 3 Este 14 Este 0 -- -- 100
2018-01-27 17:00:00 3.1 8 Nordeste 22 Nordeste 0 -- -- 100
2018-01-27 16:00:00 3.3 5 Nordeste 18 Nordeste 0 -- -- 100
2018-01-27 15:00:00 3 7 Nordeste 27 Nordeste 0 -- -- 100
2018-01-27 14:00:00 2.8 9 Nordeste 25 Este 0 -- -- 100
2018-01-27 13:00:00 2.6 8 Nordeste 23 Nordeste 0 -- -- 100
2018-01-27 12:00:00 2.5 10 Nordeste 27 Nordeste 0 -- -- 100
2018-01-27 11:00:00 1.7 10 Nordeste 29 Nordeste 0 -- -- 100
2018-01-27 10:00:00 1.1 8 Nordeste 25 Nordeste 0.2 -- -- 100
2018-01-27 09:00:00 0.7 9 Nordeste 30 Nordeste 0 -- -- 100
2018-01-27 08:00:00 0.8 9 Nordeste 26 Nordeste 0 -- -- 100
2018-01-27 07:00:00 0.8 7 Nordeste 21 Norte 0 -- -- 100
2018-01-27 06:00:00 0.6 6 Nordeste 20 Norte 0 -- -- 100
2018-01-27 05:00:00 0.3 6 Norte 18 Norte 0 -- -- 100
2018-01-27 04:00:00 0.5 8 Nordeste 23 Nordeste 0 -- -- 100
2018-01-27 03:00:00 0.5 8 Nordeste 23 Nordeste 0 -- -- 100
2018-01-27 02:00:00 0.5 8 Nordeste 28 Norte 0 -- -- 100
2018-01-27 01:00:00 0.5 8 Norte 23 Nordeste 0 -- -- 100
2018-01-27 00:00:00 0.3 8 Norte 23 Norte 0 -- -- 100
2018-01-26 23:00:00 0.8 9 Norte 25 Norte 0.2 -- -- 100
2018-01-26 22:00:00 0.8 9 Noroeste 24 Noroeste 0.2 -- -- 100
2018-01-26 21:00:00 0.9 12 Noroeste 29 Norte 0.2 -- -- 100
2018-01-26 20:00:00 0.7 11 Noroeste 30 Norte 0.2 -- -- 100
2018-01-26 19:00:00 0.9 10 Noroeste 28 Noroeste 0.4 -- -- 100
2018-01-26 18:00:00 1.1 11 Noroeste 23 Noroeste 0.4 -- -- 100
2018-01-26 17:00:00 1.1 6 Norte 28 Noroeste 0.8 -- -- 100
2018-01-26 16:00:00 1.5 10 Noroeste 21 Noroeste 1 -- -- 100
2018-01-26 15:00:00 0.9 10 Noroeste 26 Noroeste 1.4 -- -- 100
2018-01-26 14:00:00 0.7 10 Noroeste 31 Norte 1.4 -- -- 100
2018-01-26 13:00:00 0.3 12 Noroeste 24 Oeste 0.6 -- -- 100
2018-01-26 12:00:00 -0.1 8 Noroeste 22 Noroeste 0.2 -- -- 100
2018-01-26 11:00:00 -0.1 17 Oeste 27 Oeste 0 -- -- 100
2018-01-26 10:00:00 -0.3 13 Oeste 24 Oeste 0 -- -- 100
2018-01-26 09:00:00 -0.3 15 Oeste 28 Oeste 0 -- -- 100
2018-01-26 08:00:00 -0.5 12 Oeste 29 Noroeste 0 -- -- 100
2018-01-26 07:00:00 -0.4 14 Oeste 28 Oeste 0 -- -- 100
2018-01-26 06:00:00 -0.2 14 Oeste 23 Oeste 0 -- -- 100
2018-01-26 05:00:00 -0.1 15 Oeste 26 Noroeste 0 -- -- 100
2018-01-26 04:00:00 -0.5 12 Oeste 22 Oeste 0 -- -- 100
2018-01-26 03:00:00 -0.7 9 Oeste 24 Oeste 0 -- -- 100
2018-01-26 02:00:00 -0.6 14 Oeste 22 Oeste 0 -- -- 100
2018-01-26 01:00:00 -0.5 12 Oeste 20 Oeste 0 -- -- 100
2018-01-26 00:00:00 -0.4 10 Oeste 23 Oeste 0 -- -- 100
2018-01-25 23:00:00 -0.6 12 Oeste 21 Oeste 0 -- -- 100
2018-01-25 22:00:00 -0.6 14 Oeste 30 Oeste 0 -- -- 100
2018-01-25 21:00:00 -0.2 10 Oeste 23 Oeste 0 -- -- 100
2018-01-25 20:00:00 -0.1 14 Oeste 27 Oeste 0 -- -- 100
2018-01-25 19:00:00 0.1 14 Noroeste 29 Oeste 0.2 -- -- 100
2018-01-25 18:00:00 -0.1 12 Oeste 41 Noroeste 0 -- -- 100
2018-01-25 17:00:00 1.5 10 Oeste 24 Oeste 0 -- -- 100
2018-01-25 16:00:00 1.4 12 Oeste 24 Noroeste 0.2 -- -- 100
2018-01-25 15:00:00 1 12 Noroeste 26 Oeste 0 -- -- 100
2018-01-25 14:00:00 0.8 14 Noroeste 33 Oeste 1.2 -- -- 100
2018-01-25 13:00:00 0.6 17 Oeste 30 Oeste 1 -- -- 100
2018-01-25 12:00:00 1.6 11 Oeste 30 Noroeste 0.6 -- -- 100
2018-01-25 11:00:00 0.8 14 Oeste 33 Oeste 2 -- -- 100
2018-01-25 10:00:00 2.2 10 Oeste 25 Oeste 0 -- -- 100
2018-01-25 09:00:00 2.1 10 Oeste 28 Oeste 1 -- -- 100
2018-01-25 08:00:00 2.6 13 Oeste 29 Sudoeste 0.8 -- -- 100
2018-01-25 07:00:00 3.5 11 Sudoeste 39 Oeste 2.2 -- -- 100
2018-01-25 06:00:00 3.9 17 Oeste 34 Oeste 2.8 -- -- 100
2018-01-25 05:00:00 5 9 Sur 30 Sudoeste 2.2 -- -- 100
2018-01-25 04:00:00 5.1 11 Sudoeste 31 Oeste 4.6 -- -- 100
2018-01-25 03:00:00 5.7 10 Sudoeste 40 Sur 0.4 -- -- 100
2018-01-25 02:00:00 5.9 21 Sur 48 Sur 0 -- -- 100
2018-01-25 01:00:00 5.9 21 Sur 60 Sudoeste 0 -- -- 100
2018-01-25 00:00:00 5.9 20 Sur 59 Sudoeste 0 -- -- 100
2018-01-24 23:00:00 5.9 28 Sur 57 Sur 0 -- -- 100
2018-01-24 22:00:00 5.9 20 Sur 50 Sur 0 -- -- 100
2018-01-24 21:00:00 6.5 14 Sur 47 Sudoeste 0 -- -- 97
2018-01-24 20:00:00 6.4 14 Sur 41 Sur 0 -- -- 96
2018-01-24 19:00:00 6.5 13 Sur 36 Sur 0.2 -- -- 95
2018-01-24 18:00:00 6.6 16 Sur 38 Sur 0 -- -- 95
2018-01-24 17:00:00 6.9 15 Sudoeste 40 Sudoeste 0 -- -- 93
2018-01-24 16:00:00 6.9 15 Sudoeste 40 Sudoeste 0 -- -- 93
2018-01-24 15:00:00 6.1 18 Sudoeste 37 Sudoeste 0 -- -- 99
2018-01-24 14:00:00 7.9 14 Sudoeste 36 Oeste 0 -- -- 90
2018-01-24 13:00:00 7.5 11 Sudoeste 28 Sudoeste 0 -- -- 86
2018-01-24 12:00:00 6.9 9 Sur 24 Sur 0 -- -- 88
2018-01-24 11:00:00 5.7 7 Sur 31 Sur 0 -- -- 90
2018-01-24 10:00:00 4.9 9 Sur 30 Sudeste 0 -- -- 93
2018-01-24 09:00:00 4.1 8 Sur 26 Sudoeste 0 -- -- 96
2018-01-24 08:00:00 3.3 8 Sur 29 Sur 0 -- -- 100
2018-01-24 07:00:00 2.8 11 Sur 25 Sudoeste 0 -- -- 100
2018-01-24 06:00:00 2.2 7 Sur 30 Sudoeste 0 -- -- 100
2018-01-24 05:00:00 2.3 9 Sudoeste 34 Oeste 0 -- -- 100
2018-01-24 04:00:00 2.3 19 Sudoeste 29 Sudoeste 0 -- -- 100
2018-01-24 03:00:00 3 15 Oeste 24 Sudoeste 0 -- -- 100
2018-01-24 02:00:00 3.6 17 Sudoeste 23 Sudoeste 0 -- -- 100
2018-01-24 01:00:00 3.6 13 Sudoeste 24 Oeste 0 -- -- 100
2018-01-24 00:00:00 3.8 15 Sudoeste 20 Sudoeste 0 -- -- 100
2018-01-23 23:00:00 4.1 14 Sudoeste 18 Sudoeste 0 -- -- 99
2018-01-23 22:00:00 4.2 13 Sudoeste 18 Sudoeste 0 -- -- 100
2018-01-23 21:00:00 4.2 11 Sudoeste 16 Oeste 0 -- -- 99
2018-01-23 20:00:00 4.3 12 Sudoeste 15 Oeste 0 -- -- 99
2018-01-23 19:00:00 4.7 12 Sudoeste 19 Sudoeste 0 -- -- 97
2018-01-23 18:00:00 5.7 14 Oeste 24 Oeste 0 -- -- 93
2018-01-23 17:00:00 6.5 15 Oeste 22 Oeste 0 -- -- 90
2018-01-23 16:00:00 6.9 13 Oeste 21 Oeste 0 -- -- 88
2018-01-23 15:00:00 6.3 8 Oeste 16 Oeste 0 -- -- 92
2018-01-23 14:00:00 6 5 Sudoeste 16 Sudoeste 0 -- -- 96
2018-01-23 13:00:00 5.8 5 Sudoeste 16 Sudoeste 0 -- -- 98
2018-01-23 12:00:00 5.6 5 Sudoeste 15 Sudoeste 0 -- -- 100
2018-01-23 11:00:00 5.5 6 Sudoeste 15 Sudoeste 0 -- -- 100
2018-01-23 10:00:00 5.3 4 Sudoeste 13 Sudoeste 0 -- -- 98
2018-01-23 09:00:00 5.2 5 Sudoeste 16 Sudoeste 0 -- -- 100
2018-01-23 08:00:00 5.3 5 Sudoeste 20 Sudoeste 0 -- -- 100
2018-01-23 07:00:00 5.4 5 Sudoeste 18 Sur 0 -- -- 100
2018-01-23 06:00:00 5.6 6 Sudoeste 16 Sudoeste 0 -- -- 100
2018-01-23 05:00:00 5.7 3 Sudoeste 12 Oeste 0 -- -- 100
2018-01-23 04:00:00 5.7 3 Sur 14 Sudoeste 0 -- -- 100
2018-01-23 03:00:00 5.8 6 Sudoeste 13 Sudoeste 0 -- -- 100
2018-01-23 02:00:00 6 3 Sur 13 Sudoeste 0 -- -- 100
2018-01-23 01:00:00 6.2 5 Sudoeste 11 Sur 0 -- -- 100
2018-01-23 00:00:00 6.2 4 Sudoeste 12 Sudoeste 0 -- -- 100
2018-01-22 23:00:00 6.3 5 Sudoeste 11 Oeste 0 -- -- 100
2018-01-22 22:00:00 6.3 7 Sudoeste 10 Sudoeste 0 -- -- 100
2018-01-22 21:00:00 6.5 6 Sudoeste 9 Sudoeste 0 -- -- 100
2018-01-22 20:00:00 6.6 4 Sudoeste 9 Oeste 0 -- -- 100
2018-01-22 19:00:00 6.7 4 Sudoeste 8 Sudoeste 0 -- -- 100
2018-01-22 18:00:00 6.9 0 Calma 6 Sudoeste 0 -- -- 100
2018-01-22 17:00:00 7.2 2 Sudeste 8 Sudoeste 0 -- -- 100
2018-01-22 16:00:00 7.1 4 Oeste 16 Oeste 0 -- -- 99
2018-01-22 15:00:00 6.7 4 Sudoeste 12 Sudoeste 0 -- -- 100
2018-01-22 14:00:00 6.5 6 Sudoeste 23 Oeste 0 -- -- 100
2018-01-22 13:00:00 6.6 4 Oeste 16 Oeste 0 -- -- 100
2018-01-22 12:00:00 6.5 5 Sudoeste 14 Sudoeste 0 -- -- 100
2018-01-22 11:00:00 6 4 Sur 14 Sudoeste 0 -- -- 100
2018-01-22 10:00:00 5.4 5 Sudoeste 13 Sudoeste 0 -- -- 100
2018-01-22 09:00:00 5.1 6 Sudoeste 17 Sudoeste 0 -- -- 100
2018-01-22 08:00:00 5.3 4 Sudoeste 18 Sur 0 -- -- 100
2018-01-22 07:00:00 5.5 4 Sudoeste 16 Sudoeste 0 -- -- 100
2018-01-22 06:00:00 5.5 5 Oeste 21 Oeste 0 -- -- 100
2018-01-22 05:00:00 5.6 5 Sudoeste 22 Sudoeste 0 -- -- 100
2018-01-22 04:00:00 5.6 5 Sudoeste 18 Oeste 0 -- -- 100
2018-01-22 03:00:00 5.7 6 Sudoeste 18 Oeste 0 -- -- 100
2018-01-22 02:00:00 5.8 8 Oeste 25 Sudoeste 0 -- -- 100
2018-01-22 01:00:00 6 5 Oeste 19 Oeste 0 -- -- 100
2018-01-22 00:00:00 6.4 7 Sudoeste 18 Sur 0 -- -- 100